sensor_id;sensor_type;location;lat;lon;timestamp;pressure;altitude;pressure_sealevel;temperature;humidity
20228;BME280;12195;55.790;37.572;2023-01-24T00:00:06;102011.65;;;0.49;67.97
20228;BME280;12195;55.790;37.572;2023-01-24T00:02:39;102014.31;;;0.52;67.83
20228;BME280;12195;55.790;37.572;2023-01-24T00:05:11;102013.42;;;0.51;67.89
20228;BME280;12195;55.790;37.572;2023-01-24T00:07:43;102003.97;;;0.52;67.76
20228;BME280;12195;55.790;37.572;2023-01-24T00:10:15;102007.45;;;0.54;67.61
20228;BME280;12195;55.790;37.572;2023-01-24T00:12:47;102009.15;;;0.53;67.62
20228;BME280;12195;55.790;37.572;2023-01-24T00:15:20;102024.70;;;0.55;67.70
20228;BME280;12195;55.790;37.572;2023-01-24T00:17:53;102012.70;;;0.57;67.31
20228;BME280;12195;55.790;37.572;2023-01-24T00:20:25;102016.13;;;0.57;67.21
20228;BME280;12195;55.790;37.572;2023-01-24T00:22:57;102015.24;;;0.55;67.17
20228;BME280;12195;55.790;37.572;2023-01-24T00:25:29;102005.71;;;0.53;67.45
20228;BME280;12195;55.790;37.572;2023-01-24T00:28:02;102006.56;;;0.53;67.61
20228;BME280;12195;55.790;37.572;2023-01-24T00:30:34;102010.08;;;0.55;67.37
20228;BME280;12195;55.790;37.572;2023-01-24T00:33:06;102004.09;;;0.58;67.12
20228;BME280;12195;55.790;37.572;2023-01-24T00:35:38;102007.48;;;0.55;67.42
20228;BME280;12195;55.790;37.572;2023-01-24T00:38:10;102000.55;;;0.53;67.58
20228;BME280;12195;55.790;37.572;2023-01-24T00:40:42;102004.02;;;0.55;67.52
20228;BME280;12195;55.790;37.572;2023-01-24T00:43:14;101993.68;;;0.55;67.69
20228;BME280;12195;55.790;37.572;2023-01-24T00:45:48;102003.21;;;0.57;67.62
20228;BME280;12195;55.790;37.572;2023-01-24T00:48:20;102000.66;;;0.59;67.61
20228;BME280;12195;55.790;37.572;2023-01-24T00:50:52;101993.84;;;0.61;67.60
20228;BME280;12195;55.790;37.572;2023-01-24T00:53:24;101996.45;;;0.62;67.54
20228;BME280;12195;55.790;37.572;2023-01-24T00:55:57;101998.23;;;0.65;67.34
20228;BME280;12195;55.790;37.572;2023-01-24T00:58:29;101990.48;;;0.65;67.28
20228;BME280;12195;55.790;37.572;2023-01-24T01:01:01;101991.37;;;0.67;67.28
20228;BME280;12195;55.790;37.572;2023-01-24T01:03:34;101987.05;;;0.66;67.11
20228;BME280;12195;55.790;37.572;2023-01-24T01:06:09;101987.05;;;0.66;67.25
20228;BME280;12195;55.790;37.572;2023-01-24T01:08:41;101978.41;;;0.64;67.26
20228;BME280;12195;55.790;37.572;2023-01-24T01:11:15;101975.83;;;0.65;67.18
20228;BME280;12195;55.790;37.572;2023-01-24T01:13:47;101976.75;;;0.67;67.24
20228;BME280;12195;55.790;37.572;2023-01-24T01:16:20;101974.12;;;0.66;67.24
20228;BME280;12195;55.790;37.572;2023-01-24T01:18:54;101961.20;;;0.66;67.33
20228;BME280;12195;55.790;37.572;2023-01-24T01:21:26;101963.78;;;0.66;67.15
20228;BME280;12195;55.790;37.572;2023-01-24T01:23:58;101968.98;;;0.67;67.23
20228;BME280;12195;55.790;37.572;2023-01-24T01:26:31;101968.98;;;0.67;67.19
20228;BME280;12195;55.790;37.572;2023-01-24T01:29:03;101971.61;;;0.69;67.13
20228;BME280;12195;55.790;37.572;2023-01-24T01:31:36;101960.35;;;0.67;66.99
20228;BME280;12195;55.790;37.572;2023-01-24T01:34:09;101962.08;;;0.66;67.01
20228;BME280;12195;55.790;37.572;2023-01-24T01:36:44;101968.11;;;0.67;67.09
20228;BME280;12195;55.790;37.572;2023-01-24T01:39:16;101961.20;;;0.66;67.37
20228;BME280;12195;55.790;37.572;2023-01-24T01:41:48;101962.08;;;0.66;67.46
20228;BME280;12195;55.790;37.572;2023-01-24T01:44:26;101953.55;;;0.70;67.35
20228;BME280;12195;55.790;37.572;2023-01-24T01:49:51;101960.53;;;0.74;67.09
20228;BME280;12195;55.790;37.572;2023-01-24T01:52:24;101963.94;;;0.73;66.95
20228;BME280;12195;55.790;37.572;2023-01-24T01:55:01;101953.56;;;0.72;67.05
20228;BME280;12195;55.790;37.572;2023-01-24T01:57:34;101969.92;;;0.71;67.15
20228;BME280;12195;55.790;37.572;2023-01-24T02:00:16;101957.84;;;0.70;67.08
20228;BME280;12195;55.790;37.572;2023-01-24T02:02:55;101957.84;;;0.70;67.07
20228;BME280;12195;55.790;37.572;2023-01-24T02:05:28;101961.31;;;0.70;67.09
20228;BME280;12195;55.790;37.572;2023-01-24T02:08:03;101960.42;;;0.70;67.15
20228;BME280;12195;55.790;37.572;2023-01-24T02:10:36;101960.39;;;0.68;67.09
20228;BME280;12195;55.790;37.572;2023-01-24T02:13:25;101965.59;;;0.70;67.12
20228;BME280;12195;55.790;37.572;2023-01-24T02:15:58;101963.02;;;0.70;67.23
20228;BME280;12195;55.790;37.572;2023-01-24T02:18:39;101963.02;;;0.70;67.17
20228;BME280;12195;55.790;37.572;2023-01-24T02:21:14;101956.95;;;0.69;67.14
20228;BME280;12195;55.790;37.572;2023-01-24T02:24:05;101953.84;;;0.85;67.42
20228;BME280;12195;55.790;37.572;2023-01-24T02:26:38;101958.73;;;0.70;66.92
20228;BME280;12195;55.790;37.572;2023-01-24T02:29:12;101956.99;;;0.71;67.05
20228;BME280;12195;55.790;37.572;2023-01-24T02:31:57;101956.92;;;0.68;67.00
20228;BME280;12195;55.790;37.572;2023-01-24T02:34:30;101961.16;;;0.64;67.26
20228;BME280;12195;55.790;37.572;2023-01-24T02:37:05;101961.20;;;0.66;67.22
20228;BME280;12195;55.790;37.572;2023-01-24T02:40:03;101953.45;;;0.66;67.27
20228;BME280;12195;55.790;37.572;2023-01-24T02:42:35;101949.13;;;0.65;67.38
20228;BME280;12195;55.790;37.572;2023-01-24T02:45:26;101953.48;;;0.67;67.16
20228;BME280;12195;55.790;37.572;2023-01-24T02:47:59;101949.97;;;0.65;67.26
20228;BME280;12195;55.790;37.572;2023-01-24T02:50:32;101949.97;;;0.64;67.64
20228;BME280;12195;55.790;37.572;2023-01-24T02:53:06;101948.23;;;0.64;67.52
20228;BME280;12195;55.790;37.572;2023-01-24T02:56:04;101941.38;;;0.65;67.36
20228;BME280;12195;55.790;37.572;2023-01-24T02:58:54;101933.58;;;0.63;67.71
20228;BME280;12195;55.790;37.572;2023-01-24T03:01:26;101941.38;;;0.65;67.51
20228;BME280;12195;55.790;37.572;2023-01-24T03:04:00;101935.28;;;0.63;67.61
20228;BME280;12195;55.790;37.572;2023-01-24T03:06:33;101931.06;;;0.66;67.53
20228;BME280;12195;55.790;37.572;2023-01-24T03:09:05;101928.45;;;0.65;67.34
20228;BME280;12195;55.790;37.572;2023-01-24T03:11:39;101927.56;;;0.64;67.60
20228;BME280;12195;55.790;37.572;2023-01-24T03:14:13;101921.58;;;0.67;67.59
20228;BME280;12195;55.790;37.572;2023-01-24T03:17:02;101917.22;;;0.64;67.89
20228;BME280;12195;55.790;37.572;2023-01-24T03:19:52;101912.98;;;0.68;67.90
20228;BME280;12195;55.790;37.572;2023-01-24T03:22:42;101907.84;;;0.69;67.63
20228;BME280;12195;55.790;37.572;2023-01-24T03:25:32;101902.64;;;0.68;67.84
20228;BME280;12195;55.790;37.572;2023-01-24T03:28:22;101907.03;;;0.70;67.69
20228;BME280;12195;55.790;37.572;2023-01-24T03:31:11;101908.77;;;0.71;67.59
20228;BME280;12195;55.790;37.572;2023-01-24T03:34:01;101909.58;;;0.69;67.53
20228;BME280;12195;55.790;37.572;2023-01-24T03:36:51;101906.99;;;0.69;67.67
20228;BME280;12195;55.790;37.572;2023-01-24T03:39:23;101902.64;;;0.68;67.55
20228;BME280;12195;55.790;37.572;2023-01-24T03:42:13;101898.31;;;0.67;67.61
20228;BME280;12195;55.790;37.572;2023-01-24T03:44:46;101901.67;;;0.63;67.71
20228;BME280;12195;55.790;37.572;2023-01-24T03:47:18;101897.28;;;0.59;67.36
20228;BME280;12195;55.790;37.572;2023-01-24T03:49:50;101902.34;;;0.53;68.13
20228;BME280;12195;55.790;37.572;2023-01-24T03:52:40;101896.22;;;0.48;68.16
20228;BME280;12195;55.790;37.572;2023-01-24T03:55:13;101900.39;;;0.43;68.06
20228;BME280;12195;55.790;37.572;2023-01-24T03:57:46;101898.53;;;0.36;68.16
20228;BME280;12195;55.790;37.572;2023-01-24T04:00:19;101894.14;;;0.32;68.44
20228;BME280;12195;55.790;37.572;2023-01-24T04:02:54;101900.89;;;0.25;68.56
20228;BME280;12195;55.790;37.572;2023-01-24T04:05:27;101893.84;;;0.18;68.80
20228;BME280;12195;55.790;37.572;2023-01-24T04:08:03;101897.15;;;0.13;69.21
20228;BME280;12195;55.790;37.572;2023-01-24T04:10:36;101893.67;;;0.11;69.49
20228;BME280;12195;55.790;37.572;2023-01-24T04:13:10;101891.37;;;0.24;69.06
20228;BME280;12195;55.790;37.572;2023-01-24T04:15:45;101891.09;;;0.12;69.24
20228;BME280;12195;55.790;37.572;2023-01-24T04:18:31;101891.09;;;0.11;69.35
20228;BME280;12195;55.790;37.572;2023-01-24T04:21:04;101891.91;;;0.09;69.57
20228;BME280;12195;55.790;37.572;2023-01-24T04:23:38;101888.52;;;0.12;69.58
20228;BME280;12195;55.790;37.572;2023-01-24T04:26:10;101882.58;;;0.15;69.68
20228;BME280;12195;55.790;37.572;2023-01-24T04:28:43;101891.22;;;0.17;69.80
20228;BME280;12195;55.790;37.572;2023-01-24T04:31:15;101885.28;;;0.21;69.85
20228;BME280;12195;55.790;37.572;2023-01-24T04:34:05;101887.98;;;0.27;69.75
20228;BME280;12195;55.790;37.572;2023-01-24T04:36:39;101882.89;;;0.30;69.60
20228;BME280;12195;55.790;37.572;2023-01-24T04:39:13;101891.59;;;0.35;69.68
20228;BME280;12195;55.790;37.572;2023-01-24T04:41:47;101894.30;;;0.39;69.53
20228;BME280;12195;55.790;37.572;2023-01-24T04:44:19;101884.92;;;0.44;69.43
20228;BME280;12195;55.790;37.572;2023-01-24T04:46:52;101887.55;;;0.46;69.97
20228;BME280;12195;55.790;37.572;2023-01-24T04:49:24;101888.50;;;0.51;69.61
20228;BME280;12195;55.790;37.572;2023-01-24T04:51:58;101883.38;;;0.52;69.55
20228;BME280;12195;55.790;37.572;2023-01-24T04:54:32;101887.80;;;0.58;69.85
20228;BME280;12195;55.790;37.572;2023-01-24T04:57:04;101884.47;;;0.63;69.83
20228;BME280;12195;55.790;37.572;2023-01-24T04:59:38;101891.45;;;0.67;69.18
20228;BME280;12195;55.790;37.572;2023-01-24T05:02:11;101888.05;;;0.70;68.81
20228;BME280;12195;55.790;37.572;2023-01-24T05:04:45;101876.86;;;0.71;68.74
20228;BME280;12195;55.790;37.572;2023-01-24T05:07:19;101877.67;;;0.68;68.94
20228;BME280;12195;55.790;37.572;2023-01-24T05:09:54;101874.23;;;0.69;69.05
20228;BME280;12195;55.790;37.572;2023-01-24T05:12:27;101872.54;;;0.70;68.96
20228;BME280;12195;55.790;37.572;2023-01-24T05:15:01;101876.86;;;0.71;68.62
20228;BME280;12195;55.790;37.572;2023-01-24T05:17:33;101869.95;;;0.70;68.95
20228;BME280;12195;55.790;37.572;2023-01-24T05:20:06;101876.01;;;0.72;69.14
20228;BME280;12195;55.790;37.572;2023-01-24T05:22:40;101867.44;;;0.73;68.88
20228;BME280;12195;55.790;37.572;2023-01-24T05:25:14;101871.76;;;0.74;68.76
20228;BME280;12195;55.790;37.572;2023-01-24T05:27:48;101867.41;;;0.71;69.04
20228;BME280;12195;55.790;37.572;2023-01-24T05:30:20;101875.23;;;0.74;68.98
20228;BME280;12195;55.790;37.572;2023-01-24T05:32:58;101868.39;;;0.78;68.71
20228;BME280;12195;55.790;37.572;2023-01-24T05:35:30;101864.11;;;0.78;68.83
20228;BME280;12195;55.790;37.572;2023-01-24T05:38:03;101866.69;;;0.80;68.49
20228;BME280;12195;55.790;37.572;2023-01-24T05:40:35;101871.86;;;0.78;68.41
20228;BME280;12195;55.790;37.572;2023-01-24T05:43:08;101867.51;;;0.77;68.67
20228;BME280;12195;55.790;37.572;2023-01-24T05:45:41;101864.11;;;0.78;68.53
20228;BME280;12195;55.790;37.572;2023-01-24T05:48:15;101869.27;;;0.78;68.42
20228;BME280;12195;55.790;37.572;2023-01-24T05:50:48;101864.95;;;0.79;68.32
20228;BME280;12195;55.790;37.572;2023-01-24T05:53:21;101857.23;;;0.80;68.10
20228;BME280;12195;55.790;37.572;2023-01-24T05:56:05;101856.31;;;0.77;67.83
20228;BME280;12195;55.790;37.572;2023-01-24T05:58:38;101850.19;;;0.73;67.50
20228;BME280;12195;55.790;37.572;2023-01-24T06:01:20;101854.34;;;0.65;68.36
20228;BME280;12195;55.790;37.572;2023-01-24T06:03:55;101848.22;;;0.60;68.91
20228;BME280;12195;55.790;37.572;2023-01-24T06:06:28;101845.59;;;0.59;68.33
20228;BME280;12195;55.790;37.572;2023-01-24T06:09:01;101850.73;;;0.56;68.68
20228;BME280;12195;55.790;37.572;2023-01-24T06:11:34;101846.34;;;0.52;69.11
20228;BME280;12195;55.790;37.572;2023-01-24T06:14:09;101845.56;;;0.56;69.34
20228;BME280;12195;55.790;37.572;2023-01-24T06:16:43;101850.77;;;0.59;69.54
20228;BME280;12195;55.790;37.572;2023-01-24T06:19:16;101849.17;;;0.64;69.12
20228;BME280;12195;55.790;37.572;2023-01-24T06:21:55;101855.27;;;0.67;68.94
20228;BME280;12195;55.790;37.572;2023-01-24T06:24:27;101846.72;;;0.71;68.46
20228;BME280;12195;55.790;37.572;2023-01-24T06:27:04;101857.91;;;0.72;68.73
20228;BME280;12195;55.790;37.572;2023-01-24T06:29:37;101848.45;;;0.72;68.72
20228;BME280;12195;55.790;37.572;2023-01-24T06:32:27;101845.12;;;0.78;68.73
20228;BME280;12195;55.790;37.572;2023-01-24T06:37:44;101840.19;;;0.90;68.52
20228;BME280;12195;55.790;37.572;2023-01-24T06:40:19;101836.02;;;0.98;69.08
20228;BME280;12195;55.790;37.572;2023-01-24T06:42:54;101827.56;;;1.08;68.40
20228;BME280;12195;55.790;37.572;2023-01-24T06:45:26;101841.51;;;1.16;67.77
20228;BME280;12195;55.790;37.572;2023-01-24T06:47:59;101838.16;;;1.21;67.62
20228;BME280;12195;55.790;37.572;2023-01-24T06:50:33;101836.48;;;1.25;68.02
20228;BME280;12195;55.790;37.572;2023-01-24T06:53:06;101837.43;;;1.28;67.73
20228;BME280;12195;55.790;37.572;2023-01-24T06:55:44;101833.22;;;1.35;67.58
20228;BME280;12195;55.790;37.572;2023-01-24T06:58:17;101841.08;;;1.41;66.66
20228;BME280;12195;55.790;37.572;2023-01-24T07:00:53;101837.63;;;1.40;66.35
20228;BME280;12195;55.790;37.572;2023-01-24T07:03:26;101847.05;;;1.37;66.81
20228;BME280;12195;55.790;37.572;2023-01-24T07:05:58;101850.52;;;1.37;66.38
20228;BME280;12195;55.790;37.572;2023-01-24T07:08:31;101847.90;;;1.36;66.56
20228;BME280;12195;55.790;37.572;2023-01-24T07:11:03;101841.93;;;1.40;66.62
20228;BME280;12195;55.790;37.572;2023-01-24T07:13:36;101848.84;;;1.41;66.71
20228;BME280;12195;55.790;37.572;2023-01-24T07:16:08;101847.25;;;1.49;66.82
20228;BME280;12195;55.790;37.572;2023-01-24T07:18:41;101850.77;;;1.54;66.75
20228;BME280;12195;55.790;37.572;2023-01-24T07:21:14;101849.17;;;1.62;65.92
20228;BME280;12195;55.790;37.572;2023-01-24T07:23:53;101847.55;;;1.67;65.64
20228;BME280;12195;55.790;37.572;2023-01-24T07:26:22;101852.76;;;1.70;65.80
20228;BME280;12195;55.790;37.572;2023-01-24T07:28:55;101850.25;;;1.74;65.81
20228;BME280;12195;55.790;37.572;2023-01-24T07:31:28;101850.33;;;1.79;65.88
20228;BME280;12195;55.790;37.572;2023-01-24T07:34:01;101839.12;;;1.80;65.97
20228;BME280;12195;55.790;37.572;2023-01-24T07:36:33;101844.30;;;1.80;65.35
20228;BME280;12195;55.790;37.572;2023-01-24T07:39:06;101838.21;;;1.78;65.71
20228;BME280;12195;55.790;37.572;2023-01-24T07:41:38;101842.56;;;1.79;65.17
20228;BME280;12195;55.790;37.572;2023-01-24T07:44:14;101843.36;;;1.76;65.60
20228;BME280;12195;55.790;37.572;2023-01-24T07:46:46;101833.86;;;1.75;65.79
20228;BME280;12195;55.790;37.572;2023-01-24T07:49:19;101836.45;;;1.75;66.13
20228;BME280;12195;55.790;37.572;2023-01-24T07:51:51;101833.86;;;1.75;66.04
20228;BME280;12195;55.790;37.572;2023-01-24T07:54:24;101842.56;;;1.79;65.85
20228;BME280;12195;55.790;37.572;2023-01-24T07:56:56;101850.38;;;1.83;65.61
20228;BME280;12195;55.790;37.572;2023-01-24T07:59:29;101849.53;;;1.84;65.46
20228;BME280;12195;55.790;37.572;2023-01-24T08:02:02;101847.82;;;1.85;65.35
20228;BME280;12195;55.790;37.572;2023-01-24T08:04:35;101851.30;;;1.85;65.62
20228;BME280;12195;55.790;37.572;2023-01-24T08:07:07;101842.70;;;1.88;65.25
20228;BME280;12195;55.790;37.572;2023-01-24T08:09:49;101847.05;;;1.90;65.04
20228;BME280;12195;55.790;37.572;2023-01-24T08:12:22;101839.30;;;1.92;65.04
20228;BME280;12195;55.790;37.572;2023-01-24T08:14:55;101843.70;;;1.97;65.23
20228;BME280;12195;55.790;37.572;2023-01-24T08:17:27;101832.52;;;2.00;65.11
20228;BME280;12195;55.790;37.572;2023-01-24T08:20:00;101836.84;;;2.01;64.93
20228;BME280;12195;55.790;37.572;2023-01-24T08:22:32;101842.02;;;2.01;64.70
20228;BME280;12195;55.790;37.572;2023-01-24T08:25:06;101838.52;;;1.99;64.76
20228;BME280;12195;55.790;37.572;2023-01-24T08:27:40;101835.92;;;1.99;64.66
20228;BME280;12195;55.790;37.572;2023-01-24T08:30:14;101820.38;;;1.99;65.16
20228;BME280;12195;55.790;37.572;2023-01-24T08:32:47;101822.12;;;1.98;65.06
20228;BME280;12195;55.790;37.572;2023-01-24T08:35:19;101826.52;;;2.04;64.94
20228;BME280;12195;55.790;37.572;2023-01-24T08:37:52;101830.82;;;2.03;64.69
20228;BME280;12195;55.790;37.572;2023-01-24T08:40:25;101813.52;;;2.01;64.70
20228;BME280;12195;55.790;37.572;2023-01-24T08:43:00;101812.64;;;2.00;64.60
20228;BME280;12195;55.790;37.572;2023-01-24T08:45:32;101811.80;;;2.03;64.94
20228;BME280;12195;55.790;37.572;2023-01-24T08:48:05;101809.27;;;2.06;65.43
20228;BME280;12195;55.790;37.572;2023-01-24T08:50:38;101807.70;;;2.17;64.68
20228;BME280;12195;55.790;37.572;2023-01-24T08:53:12;101801.75;;;2.24;64.84
20228;BME280;12195;55.790;37.572;2023-01-24T08:55:50;101801.89;;;2.37;64.46
20228;BME280;12195;55.790;37.572;2023-01-24T08:58:23;101804.62;;;2.49;64.26
20228;BME280;12195;55.790;37.572;2023-01-24T09:00:55;101796.14;;;2.61;63.74
20228;BME280;12195;55.790;37.572;2023-01-24T09:03:28;101790.14;;;2.68;63.19
20228;BME280;12195;55.790;37.572;2023-01-24T09:06:01;101782.46;;;2.75;63.14
20228;BME280;12195;55.790;37.572;2023-01-24T09:08:33;101788.59;;;2.83;62.66
20228;BME280;12195;55.790;37.572;2023-01-24T09:11:06;101793.77;;;2.85;62.41
20228;BME280;12195;55.790;37.572;2023-01-24T09:13:38;101775.61;;;2.85;62.34
20228;BME280;12195;55.790;37.572;2023-01-24T09:16:11;101779.09;;;2.85;62.09
20228;BME280;12195;55.790;37.572;2023-01-24T09:18:44;101777.36;;;2.84;62.04
20228;BME280;12195;55.790;37.572;2023-01-24T09:21:16;101770.41;;;2.80;62.15
20228;BME280;12195;55.790;37.572;2023-01-24T09:23:49;101781.59;;;2.76;61.69
20228;BME280;12195;55.790;37.572;2023-01-24T09:26:22;101776.37;;;2.73;61.83
20228;BME280;12195;55.790;37.572;2023-01-24T09:28:54;101769.39;;;2.68;61.98
20228;BME280;12195;55.790;37.572;2023-01-24T09:31:29;101772.85;;;2.67;62.17
20228;BME280;12195;55.790;37.572;2023-01-24T09:34:02;101772.87;;;2.68;62.56
20228;BME280;12195;55.790;37.572;2023-01-24T09:36:34;101777.20;;;2.69;61.97
20228;BME280;12195;55.790;37.572;2023-01-24T09:39:07;101779.79;;;2.69;61.37
20228;BME280;12195;55.790;37.572;2023-01-24T09:44:46;101775.41;;;2.64;62.48
20228;BME280;12195;55.790;37.572;2023-01-24T09:50:02;101758.16;;;2.66;62.00
20228;BME280;12195;55.790;37.572;2023-01-24T09:52:39;101763.34;;;2.66;62.29
20228;BME280;12195;55.790;37.572;2023-01-24T09:55:25;101764.19;;;2.66;62.13
20228;BME280;12195;55.790;37.572;2023-01-24T09:58:21;101759.06;;;2.71;62.57
20228;BME280;12195;55.790;37.572;2023-01-24T10:00:50;101740.95;;;2.74;62.11
20228;BME280;12195;55.790;37.572;2023-01-24T10:03:24;101743.56;;;2.78;61.90
20228;BME280;12195;55.790;37.572;2023-01-24T10:05:59;101743.64;;;2.84;62.26
20228;BME280;12195;55.790;37.572;2023-01-24T10:09:01;101737.66;;;2.91;62.02
20228;BME280;12195;55.790;37.572;2023-01-24T10:17:29;101736.92;;;3.06;60.65
20228;BME280;12195;55.790;37.572;2023-01-24T10:25:57;101721.44;;;3.18;60.29
20228;BME280;12195;55.790;37.572;2023-01-24T10:28:35;101724.06;;;3.24;60.84
20228;BME280;12195;55.790;37.572;2023-01-24T10:31:14;101711.95;;;3.26;59.74
20228;BME280;12195;55.790;37.572;2023-01-24T10:33:50;101701.59;;;3.27;60.12
20228;BME280;12195;55.790;37.572;2023-01-24T10:36:49;101690.41;;;3.36;60.21
20228;BME280;12195;55.790;37.572;2023-01-24T10:39:22;101693.08;;;3.48;59.84
20228;BME280;12195;55.790;37.572;2023-01-24T10:41:54;101694.02;;;3.59;59.00
20228;BME280;12195;55.790;37.572;2023-01-24T10:44:29;101689.66;;;3.58;59.16
20228;BME280;12195;55.790;37.572;2023-01-24T10:50:05;101683.63;;;3.63;58.97
20228;BME280;12195;55.790;37.572;2023-01-24T10:52:35;101675.84;;;3.63;59.16
20228;BME280;12195;55.790;37.572;2023-01-24T10:55:33;101681.91;;;3.64;59.16
20228;BME280;12195;55.790;37.572;2023-01-24T10:58:23;101678.42;;;3.62;59.06
20228;BME280;12195;55.790;37.572;2023-01-24T11:01:09;101671.53;;;3.64;59.08
20228;BME280;12195;55.790;37.572;2023-01-24T11:03:41;101669.80;;;3.63;58.65
20228;BME280;12195;55.790;37.572;2023-01-24T11:06:40;101659.41;;;3.63;58.77
20228;BME280;12195;55.790;37.572;2023-01-24T11:09:17;101659.40;;;3.61;59.30
20228;BME280;12195;55.790;37.572;2023-01-24T11:11:53;101642.95;;;3.64;59.07
20228;BME280;12195;55.790;37.572;2023-01-24T11:14:31;101644.70;;;3.68;58.84
20228;BME280;12195;55.790;37.572;2023-01-24T11:17:07;101638.66;;;3.72;58.91
20228;BME280;12195;55.790;37.572;2023-01-24T11:19:40;101634.36;;;3.80;58.74
20228;BME280;12195;55.790;37.572;2023-01-24T11:22:22;101641.28;;;3.85;58.50
20228;BME280;12195;55.790;37.572;2023-01-24T11:25:01;101640.44;;;3.85;58.23
20228;BME280;12195;55.790;37.572;2023-01-24T11:27:43;101635.22;;;3.82;58.49
20228;BME280;12195;55.790;37.572;2023-01-24T11:33:01;101623.97;;;3.78;57.94
20228;BME280;12195;55.790;37.572;2023-01-24T11:35:44;101623.08;;;3.72;58.26
20228;BME280;12195;55.790;37.572;2023-01-24T11:41:26;101623.05;;;3.69;58.30
20228;BME280;12195;55.790;37.572;2023-01-24T11:44:24;101622.16;;;3.67;58.52
20228;BME280;12195;55.790;37.572;2023-01-24T11:47:04;101621.32;;;3.66;58.24
20228;BME280;12195;55.790;37.572;2023-01-24T11:49:54;101620.44;;;3.66;58.32
20228;BME280;12195;55.790;37.572;2023-01-24T11:58:38;101611.69;;;3.46;58.82
20228;BME280;12195;55.790;37.572;2023-01-24T12:01:15;101609.11;;;3.43;58.99
20228;BME280;12195;55.790;37.572;2023-01-24T12:07:04;101605.59;;;3.38;58.77
20228;BME280;12195;55.790;37.572;2023-01-24T12:09:56;101596.06;;;3.34;58.59
20228;BME280;12195;55.790;37.572;2023-01-24T12:12:55;101598.59;;;3.22;59.32
20228;BME280;12195;55.790;37.572;2023-01-24T12:21:03;101588.12;;;3.04;59.66
20228;BME280;12195;55.790;37.572;2023-01-24T12:23:37;101588.11;;;3.02;59.62
20228;BME280;12195;55.790;37.572;2023-01-24T12:29:12;101587.27;;;3.02;59.45
20228;BME280;12195;55.790;37.572;2023-01-24T12:35:04;101581.95;;;2.85;59.80
20228;BME280;12195;55.790;37.572;2023-01-24T12:37:51;101581.91;;;2.78;60.26
20228;BME280;12195;55.790;37.572;2023-01-24T12:40:17;101575.86;;;2.79;60.15
20228;BME280;12195;55.790;37.572;2023-01-24T12:46:00;101561.95;;;2.68;60.49
20228;BME280;12195;55.790;37.572;2023-01-24T12:51:22;101561.00;;;2.55;61.14
20228;BME280;12195;55.790;37.572;2023-01-24T12:54:18;101564.47;;;2.54;63.58
20228;BME280;12195;55.790;37.572;2023-01-24T12:57:19;101567.07;;;2.59;61.51
20228;BME280;12195;55.790;37.572;2023-01-24T12:59:33;101567.05;;;2.54;61.60
20228;BME280;12195;55.790;37.572;2023-01-24T13:05:15;101551.47;;;2.51;61.67
20228;BME280;12195;55.790;37.572;2023-01-24T13:08:01;101553.18;;;2.51;62.19
20228;BME280;12195;55.790;37.572;2023-01-24T13:10:42;101551.48;;;2.53;62.01
20228;BME280;12195;55.790;37.572;2023-01-24T13:13:23;101550.61;;;2.52;62.09
20228;BME280;12195;55.790;37.572;2023-01-24T13:16:17;101558.40;;;2.54;61.49
20228;BME280;12195;55.790;37.572;2023-01-24T13:19:05;101556.63;;;2.48;61.79
20228;BME280;12195;55.790;37.572;2023-01-24T13:21:40;101549.74;;;2.50;61.27
20228;BME280;12195;55.790;37.572;2023-01-24T13:24:18;101546.27;;;2.50;61.66
20228;BME280;12195;55.790;37.572;2023-01-24T13:32:26;101547.88;;;2.36;62.29
20228;BME280;12195;55.790;37.572;2023-01-24T13:35:00;101546.14;;;2.35;62.32
20228;BME280;12195;55.790;37.572;2023-01-24T13:37:33;101548.73;;;2.35;62.36
20228;BME280;12195;55.790;37.572;2023-01-24T13:42:50;101545.27;;;2.31;62.69
20228;BME280;12195;55.790;37.572;2023-01-24T13:48:16;101548.72;;;2.33;62.51
20228;BME280;12195;55.790;37.572;2023-01-24T13:50:37;101536.61;;;2.31;62.79
20228;BME280;12195;55.790;37.572;2023-01-24T13:53:11;101532.25;;;2.27;62.53
20228;BME280;12195;55.790;37.572;2023-01-24T13:58:22;101531.41;;;2.26;63.00
20228;BME280;12195;55.790;37.572;2023-01-24T14:01:01;101530.55;;;2.27;62.98
20228;BME280;12195;55.790;37.572;2023-01-24T14:03:36;101526.30;;;2.37;62.06
20228;BME280;12195;55.790;37.572;2023-01-24T14:06:11;101521.06;;;2.28;62.24
20228;BME280;12195;55.790;37.572;2023-01-24T14:11:34;101524.50;;;2.28;62.87
20228;BME280;12195;55.790;37.572;2023-01-24T14:14:32;101513.25;;;2.25;62.69
20228;BME280;12195;55.790;37.572;2023-01-24T14:17:24;101519.27;;;2.21;62.92
20228;BME280;12195;55.790;37.572;2023-01-24T14:19:44;101515.77;;;2.17;62.97
20228;BME280;12195;55.790;37.572;2023-01-24T14:22:19;101510.59;;;2.19;62.97
20228;BME280;12195;55.790;37.572;2023-01-24T14:28:20;101506.26;;;2.16;63.00
20228;BME280;12195;55.790;37.572;2023-01-24T14:30:57;101501.09;;;2.18;62.82
20228;BME280;12195;55.790;37.572;2023-01-24T14:36:28;101506.24;;;2.12;63.27
20228;BME280;12195;55.790;37.572;2023-01-24T14:41:47;101489.84;;;2.13;63.25
20228;BME280;12195;55.790;37.572;2023-01-24T14:47:12;101486.37;;;2.09;63.43
20228;BME280;12195;55.790;37.572;2023-01-24T14:49:44;101488.97;;;2.14;63.38
20228;BME280;12195;55.790;37.572;2023-01-24T14:52:31;101480.27;;;2.06;63.84
20228;BME280;12195;55.790;37.572;2023-01-24T14:57:51;101479.42;;;2.08;64.29
20228;BME280;12195;55.790;37.572;2023-01-24T15:00:24;101479.44;;;2.10;63.86
20228;BME280;12195;55.790;37.572;2023-01-24T15:02:59;101472.53;;;2.09;63.87
20228;BME280;12195;55.790;37.572;2023-01-24T15:05:35;101467.34;;;2.07;63.87
20228;BME280;12195;55.790;37.572;2023-01-24T15:08:13;101478.58;;;2.08;64.16